createdAt,value
2019-05-23T00:00:44.027Z,101213.73
2019-05-23T00:04:20.475Z,101211.77
2019-05-23T00:07:45.550Z,101225.89
2019-05-23T00:11:33.283Z,101218.20
2019-05-23T00:14:55.504Z,101213.56
2019-05-23T00:18:04.549Z,101220.46
2019-05-23T00:21:11.866Z,101208.36
2019-05-23T00:24:19.661Z,101212.11
2019-05-23T00:27:26.460Z,101210.37
2019-05-23T00:30:40.490Z,101212.52
2019-05-23T00:33:47.773Z,101214.83
2019-05-23T00:36:56.459Z,101205.86
2019-05-23T00:40:05.743Z,101192.97
2019-05-23T00:43:12.663Z,101199.67
2019-05-23T00:46:20.042Z,101190.17
2019-05-23T00:49:26.725Z,101184.93
2019-05-23T00:52:33.589Z,101172.93
2019-05-23T00:55:40.905Z,101170.44
2019-05-23T00:58:48.971Z,101169.10
2019-05-23T01:01:56.873Z,101164.58
2019-05-23T01:05:05.214Z,101161.52
2019-05-23T01:08:11.674Z,101153.96
2019-05-23T01:11:20.296Z,101158.63
2019-05-23T01:14:27.367Z,101158.05
2019-05-23T01:17:36.221Z,101169.69
2019-05-23T01:20:54.002Z,101171.87
2019-05-23T01:24:16.722Z,101171.25
2019-05-23T01:27:23.291Z,101166.84
2019-05-23T01:30:35.470Z,101173.91
2019-05-23T01:33:42.706Z,101175.81
2019-05-23T01:36:49.873Z,101176.66
2019-05-23T01:39:57.577Z,101158.20
2019-05-23T01:43:04.412Z,101158.20
2019-05-23T01:46:11.578Z,101175.68
2019-05-23T01:49:18.089Z,101162.61
2019-05-23T01:52:25.445Z,101173.14
2019-05-23T01:55:32.780Z,101168.02
2019-05-23T01:58:39.903Z,101168.02
2019-05-23T02:01:46.611Z,101165.63
2019-05-23T02:04:53.194Z,101165.63
2019-05-23T02:08:00.852Z,101166.16
2019-05-23T02:11:08.513Z,101165.63
2019-05-23T02:14:15.463Z,101158.72
2019-05-23T02:17:22.669Z,101158.72
2019-05-23T02:20:29.433Z,101172.64
2019-05-23T02:23:35.991Z,101165.66
2019-05-23T02:26:42.441Z,101166.45
2019-05-23T02:29:49.118Z,101173.60
2019-05-23T02:32:55.748Z,101169.91
2019-05-23T02:36:02.209Z,101175.08
2019-05-23T02:39:27.950Z,101158.42
2019-05-23T02:42:43.272Z,101164.18
2019-05-23T02:45:51.587Z,101162.98
2019-05-23T02:49:02.999Z,101167.21
2019-05-23T02:52:23.226Z,101156.56
2019-05-23T02:55:34.331Z,101160.23
2019-05-23T02:59:05.468Z,101156.09
2019-05-23T03:02:46.590Z,101157.27
2019-05-23T03:05:53.362Z,101182.02
2019-05-23T03:09:00.033Z,101182.08
2019-05-23T03:12:09.143Z,101178.69
2019-05-23T03:15:16.965Z,101170.13
2019-05-23T03:18:24.312Z,101173.66
2019-05-23T03:21:30.925Z,101172.17
2019-05-23T03:24:37.407Z,101157.16
2019-05-23T03:27:45.258Z,101167.09
2019-05-23T03:31:25.682Z,101163.14
2019-05-23T03:34:03.892Z,101170.27
2019-05-23T03:37:10.933Z,101153.97
2019-05-23T03:40:18.496Z,101179.05
2019-05-23T03:43:25.671Z,101183.77
2019-05-23T03:46:34.584Z,101175.46
2019-05-23T03:49:42.473Z,101176.78
2019-05-23T03:52:50.337Z,101176.20
2019-05-23T03:55:59.715Z,101173.16
2019-05-23T03:59:08.473Z,101167.66
2019-05-23T04:02:16.701Z,101166.40
2019-05-23T04:05:23.143Z,101172.66
2019-05-23T04:08:30.414Z,101158.73
2019-05-23T04:11:36.903Z,101174.81
2019-05-23T04:14:43.531Z,101180.05
2019-05-23T04:17:50.365Z,101184.45
2019-05-23T04:20:56.901Z,101178.05
2019-05-23T04:24:03.680Z,101187.08
2019-05-23T04:27:10.785Z,101182.68
2019-05-23T04:30:17.282Z,101179.73
2019-05-23T04:33:24.063Z,101176.56
2019-05-23T04:36:30.473Z,101182.68
2019-05-23T04:39:36.887Z,101173.33
2019-05-23T04:42:43.352Z,101174.81
2019-05-23T04:45:49.967Z,101175.41
2019-05-23T04:48:56.275Z,101179.00
2019-05-23T04:52:03.297Z,101175.41
2019-05-23T04:55:10.661Z,101181.80
2019-05-23T04:58:17.405Z,101179.95
2019-05-23T05:01:24.565Z,101185.77
2019-05-23T05:04:31.519Z,101195.98
2019-05-23T05:07:38.734Z,101207.88
2019-05-23T05:10:47.426Z,101207.63
2019-05-23T05:13:53.859Z,101211.27
2019-05-23T05:17:03.244Z,101210.42
2019-05-23T05:20:10.346Z,101217.89
2019-05-23T05:23:16.973Z,101232.80
2019-05-23T05:26:23.946Z,101235.61
2019-05-23T05:29:30.728Z,101235.61
2019-05-23T05:32:44.848Z,101242.28
2019-05-23T05:35:47.163Z,101245.94
2019-05-23T05:38:53.602Z,101242.12
2019-05-23T05:42:00.637Z,101240.97
2019-05-23T05:45:07.385Z,101234.67
2019-05-23T05:48:14.368Z,101228.16
2019-05-23T05:51:20.834Z,101215.57
2019-05-23T05:54:29.849Z,101218.33
2019-05-23T05:57:36.649Z,101218.33
2019-05-23T06:00:52.301Z,101227.00
2019-05-23T06:03:59.006Z,101239.97
2019-05-23T06:07:16.220Z,101257.22
2019-05-23T06:10:23.321Z,101249.49
2019-05-23T06:13:30.532Z,101256.38
2019-05-23T06:16:37.047Z,101255.30
2019-05-23T06:19:44.206Z,101253.14
2019-05-23T06:22:52.369Z,101253.73
2019-05-23T06:25:58.894Z,101254.34
2019-05-23T06:29:07.203Z,101265.74
2019-05-23T06:32:16.827Z,101256.21
2019-05-23T06:35:23.437Z,101251.29
2019-05-23T06:38:31.795Z,101257.41
2019-05-23T06:41:38.187Z,101255.94
2019-05-23T06:44:44.951Z,101257.62
2019-05-23T06:47:51.386Z,101264.61
2019-05-23T06:50:58.145Z,101255.55
2019-05-23T06:54:04.588Z,101260.75
2019-05-23T06:57:11.085Z,101258.56
2019-05-23T07:00:20.221Z,101243.16
2019-05-23T07:03:41.608Z,101256.39
2019-05-23T07:06:36.222Z,101271.18
2019-05-23T07:09:42.700Z,101263.13
2019-05-23T07:12:49.132Z,101263.92
2019-05-23T07:15:55.975Z,101275.69
2019-05-23T07:19:03.180Z,101276.17
2019-05-23T07:22:10.034Z,101278.34
2019-05-23T07:25:16.697Z,101285.70
2019-05-23T07:28:23.235Z,101285.53
2019-05-23T07:31:31.445Z,101277.75
2019-05-23T07:34:38.392Z,101278.23
2019-05-23T07:37:44.819Z,101282.95
2019-05-23T07:40:51.754Z,101297.50
2019-05-23T07:43:58.302Z,101304.11
2019-05-23T07:47:06.749Z,101310.09
2019-05-23T07:50:14.522Z,101313.02
2019-05-23T07:53:43.602Z,101324.39
2019-05-23T07:56:49.899Z,101328.23
2019-05-23T07:59:57.649Z,101338.34
2019-05-23T08:03:06.103Z,101334.41
2019-05-23T08:06:12.790Z,101333.20
2019-05-23T08:09:19.779Z,101338.59
2019-05-23T08:12:26.430Z,101340.04
2019-05-23T08:15:33.756Z,101319.27
2019-05-23T08:18:40.262Z,101319.27
2019-05-23T08:21:46.802Z,101323.30
2019-05-23T08:24:53.199Z,101325.08
2019-05-23T08:27:59.794Z,101318.14
2019-05-23T08:31:07.316Z,101331.98
2019-05-23T08:34:14.066Z,101329.23
2019-05-23T08:37:20.494Z,101329.23
2019-05-23T08:40:28.231Z,101362.73
2019-05-23T08:43:35.027Z,101362.73
2019-05-23T08:46:41.464Z,101362.36
2019-05-23T08:49:50.494Z,101374.79
2019-05-23T08:52:56.942Z,101360.95
2019-05-23T08:56:17.599Z,101360.95
2019-05-23T08:59:12.482Z,101348.98
2019-05-23T09:02:19.530Z,101354.09
2019-05-23T09:05:28.220Z,101371.77
2019-05-23T09:08:36.698Z,101368.61
2019-05-23T09:11:44.983Z,101360.05
2019-05-23T09:14:51.511Z,101356.52
2019-05-23T09:17:58.272Z,101355.99
2019-05-23T09:21:05.533Z,101360.64
2019-05-23T09:24:12.642Z,101359.91
2019-05-23T09:27:19.427Z,101364.02
2019-05-23T09:30:27.344Z,101347.86
2019-05-23T09:33:34.157Z,101347.86
2019-05-23T09:36:42.092Z,101362.80
2019-05-23T09:39:50.302Z,101357.16
2019-05-23T09:42:56.695Z,101349.59
2019-05-23T09:46:03.270Z,101354.87
2019-05-23T09:49:11.272Z,101362.44
2019-05-23T09:52:19.888Z,101362.44
2019-05-23T09:55:27.852Z,101346.49
2019-05-23T09:58:35.069Z,101345.58
2019-05-23T10:01:43.543Z,101348.47
2019-05-23T10:04:50.505Z,101335.05
2019-05-23T10:07:57.101Z,101339.48
2019-05-23T10:11:03.510Z,101334.59
2019-05-23T10:14:14.033Z,101326.66
2019-05-23T10:17:20.443Z,101329.23
2019-05-23T10:20:29.055Z,101336.73
2019-05-23T10:23:35.590Z,101334.27
2019-05-23T10:26:42.037Z,101332.30
2019-05-23T10:29:48.474Z,101336.27
2019-05-23T10:32:55.287Z,101340.67
2019-05-23T10:36:01.725Z,101357.34
2019-05-23T10:39:08.823Z,101357.20
2019-05-23T10:42:15.320Z,101360.94
2019-05-23T10:45:22.683Z,101364.35
2019-05-23T10:48:30.396Z,101363.36
2019-05-23T10:51:36.870Z,101372.45
2019-05-23T10:54:43.263Z,101371.00
2019-05-23T10:57:49.631Z,101372.13
2019-05-23T11:00:56.166Z,101369.39
2019-05-23T11:04:03.585Z,101367.88
2019-05-23T11:07:11.801Z,101373.51
2019-05-23T11:10:18.651Z,101372.37
2019-05-23T11:13:25.115Z,101371.82
2019-05-23T11:16:31.761Z,101369.92
2019-05-23T11:19:39.599Z,101383.90
2019-05-23T11:22:46.046Z,101386.05
2019-05-23T11:25:52.538Z,101395.10
2019-05-23T11:28:58.987Z,101399.64
2019-05-23T11:32:07.024Z,101395.52
2019-05-23T11:35:13.699Z,101400.86
2019-05-23T11:38:21.215Z,101389.73
2019-05-23T11:41:27.936Z,101385.07
2019-05-23T11:44:34.666Z,101385.07
2019-05-23T11:47:40.964Z,101391.27
2019-05-23T11:50:47.639Z,101391.03
2019-05-23T11:54:06.726Z,101396.69
2019-05-23T11:57:04.270Z,101398.73
2019-05-23T12:00:12.670Z,101393.40
2019-05-23T12:03:19.467Z,101397.52
2019-05-23T12:06:27.499Z,101395.52
2019-05-23T12:09:33.900Z,101395.52
2019-05-23T12:12:40.260Z,101405.13
2019-05-23T12:15:49.788Z,101392.63
2019-05-23T12:18:56.151Z,101391.25
2019-05-23T12:22:02.607Z,101396.42
2019-05-23T12:25:21.792Z,101401.59
2019-05-23T12:28:18.940Z,101399.02
2019-05-23T12:31:25.378Z,101389.41
2019-05-23T12:34:31.911Z,101396.27
2019-05-23T12:37:38.487Z,101393.98
2019-05-23T12:40:45.123Z,101382.23
2019-05-23T12:43:51.863Z,101382.23
2019-05-23T12:46:59.354Z,101401.28
2019-05-23T12:50:09.931Z,101401.37
2019-05-23T12:53:18.380Z,101393.05
2019-05-23T12:56:24.940Z,101400.36
2019-05-23T12:59:31.780Z,101391.52
2019-05-23T13:02:38.432Z,101393.42
2019-05-23T13:05:46.276Z,101401.26
2019-05-23T13:08:52.684Z,101398.36
2019-05-23T13:11:59.266Z,101401.42
2019-05-23T13:15:06.226Z,101399.73
2019-05-23T13:18:14.260Z,101397.75
2019-05-23T13:21:20.633Z,101401.09
2019-05-23T13:24:28.279Z,101385.41
2019-05-23T13:27:34.632Z,101391.33
2019-05-23T13:30:41.701Z,101388.27
2019-05-23T13:33:48.144Z,101389.92
2019-05-23T13:36:56.219Z,101401.98
2019-05-23T13:40:03.239Z,101395.24
2019-05-23T13:43:10.046Z,101396.45
2019-05-23T13:46:16.710Z,101400.39
2019-05-23T13:49:23.933Z,101390.97
2019-05-23T13:52:30.459Z,101389.91
2019-05-23T13:55:38.912Z,101396.25
2019-05-23T13:58:46.219Z,101401.20
2019-05-23T14:01:53.301Z,101398.46
2019-05-23T14:04:59.915Z,101393.50
2019-05-23T14:08:12.217Z,101385.04
2019-05-23T14:11:14.786Z,101391.89
2019-05-23T14:14:21.340Z,101397.82
2019-05-23T14:17:38.346Z,101386.69
2019-05-23T14:20:44.945Z,101389.26
2019-05-23T14:23:51.332Z,101391.84
2019-05-23T14:27:05.584Z,101380.41
2019-05-23T14:30:25.771Z,101380.41
2019-05-23T14:33:49.673Z,101392.91
2019-05-23T14:37:06.675Z,101392.91
2019-05-23T14:40:14.936Z,101382.16
2019-05-23T14:43:25.569Z,101385.13
2019-05-23T14:46:37.054Z,101380.09
2019-05-23T14:49:49.057Z,101375.58
2019-05-23T14:52:57.049Z,101377.94
2019-05-23T14:56:03.512Z,101375.20
2019-05-23T14:59:10.112Z,101386.36
2019-05-23T15:02:19.447Z,101380.36
2019-05-23T15:05:26.358Z,101374.79
2019-05-23T15:08:49.696Z,101374.79
2019-05-23T15:11:41.080Z,101376.56
2019-05-23T15:14:47.449Z,101365.77
2019-05-23T15:17:53.923Z,101377.34
2019-05-23T15:21:00.323Z,101365.94
2019-05-23T15:24:06.984Z,101363.81
2019-05-23T15:27:13.343Z,101358.94
2019-05-23T15:30:20.323Z,101352.25
2019-05-23T15:33:26.684Z,101359.74
2019-05-23T15:36:33.330Z,101360.52
2019-05-23T15:39:40.878Z,101368.55
2019-05-23T15:42:47.998Z,101368.55
2019-05-23T15:45:54.571Z,101368.49
2019-05-23T15:49:01.657Z,101359.94
2019-05-23T15:52:19.695Z,101360.89
2019-05-23T15:55:41.206Z,101364.39
2019-05-23T15:59:07.378Z,101366.25
2019-05-23T16:02:18.382Z,101361.83
2019-05-23T16:05:25.618Z,101354.34
2019-05-23T16:08:32.056Z,101356.46
2019-05-23T16:11:38.499Z,101361.64
2019-05-23T16:14:45.916Z,101349.84
2019-05-23T16:17:52.340Z,101351.20
2019-05-23T16:20:58.875Z,101342.72
2019-05-23T16:24:06.579Z,101349.11
2019-05-23T16:27:13.337Z,101336.36
2019-05-23T16:30:19.893Z,101340.08
2019-05-23T16:33:26.407Z,101348.80
2019-05-23T16:36:32.944Z,101340.33
2019-05-23T16:39:47.519Z,101351.80
2019-05-23T16:42:47.958Z,101347.20
2019-05-23T16:45:54.348Z,101345.80
2019-05-23T16:49:00.936Z,101341.83
2019-05-23T16:52:07.740Z,101342.01
2019-05-23T16:55:20.358Z,101338.04
2019-05-23T16:58:45.170Z,101345.66
2019-05-23T17:02:13.604Z,101341.89
2019-05-23T17:05:40.092Z,101338.21
2019-05-23T17:09:07.077Z,101336.41
2019-05-23T17:12:36.946Z,101332.92
2019-05-23T17:15:51.919Z,101340.92
2019-05-23T17:19:04.250Z,101341.38
2019-05-23T17:22:29.651Z,101341.10
2019-05-23T17:26:07.305Z,101340.08
2019-05-23T17:29:20.743Z,101346.96
2019-05-23T17:32:31.582Z,101339.02
2019-05-23T17:35:38.187Z,101339.02
2019-05-23T17:38:44.792Z,101347.67
2019-05-23T17:41:51.891Z,101353.17
2019-05-23T17:45:00.376Z,101354.27
2019-05-23T17:48:08.405Z,101353.33
2019-05-23T17:51:15.084Z,101348.47
2019-05-23T17:54:22.928Z,101349.71
2019-05-23T17:57:29.704Z,101351.87
2019-05-23T18:00:41.129Z,101348.06
2019-05-23T18:03:48.767Z,101345.47
2019-05-23T18:06:55.499Z,101349.84
2019-05-23T18:10:03.124Z,101344.81
2019-05-23T18:13:11.047Z,101352.06
2019-05-23T18:16:19.248Z,101348.17
2019-05-23T18:19:26.253Z,101353.67
2019-05-23T18:22:33.668Z,101352.30
2019-05-23T18:25:42.971Z,101349.70
2019-05-23T18:28:49.716Z,101335.24
2019-05-23T18:31:56.472Z,101353.77
2019-05-23T18:35:03.811Z,101353.89
2019-05-23T18:38:11.028Z,101356.17
2019-05-23T18:41:17.799Z,101357.49
2019-05-23T18:44:25.207Z,101363.20
2019-05-23T18:47:38.865Z,101356.21
2019-05-23T18:50:45.812Z,101356.73
2019-05-23T18:53:52.645Z,101360.05
2019-05-23T18:56:59.171Z,101351.33
2019-05-23T19:00:06.917Z,101365.86
2019-05-23T19:03:14.260Z,101362.20
2019-05-23T19:06:21.106Z,101357.04
2019-05-23T19:09:28.451Z,101366.66
2019-05-23T19:12:35.676Z,101374.59
2019-05-23T19:15:42.204Z,101370.34
2019-05-23T19:18:48.770Z,101363.80
2019-05-23T19:21:55.181Z,101371.77
2019-05-23T19:25:02.133Z,101373.00
2019-05-23T19:28:08.968Z,101373.39
2019-05-23T19:31:16.106Z,101368.16
2019-05-23T19:34:23.079Z,101376.39
2019-05-23T19:37:29.544Z,101375.05
2019-05-23T19:40:36.432Z,101379.92
2019-05-23T19:43:43.181Z,101374.77
2019-05-23T19:46:50.059Z,101384.74
2019-05-23T19:49:56.974Z,101376.67
2019-05-23T19:53:03.328Z,101377.84
2019-05-23T19:56:09.984Z,101378.98
2019-05-23T19:59:20.676Z,101380.50
2019-05-23T20:02:52.767Z,101382.42
2019-05-23T20:06:01.085Z,101382.59
2019-05-23T20:09:11.651Z,101383.17
2019-05-23T20:12:19.450Z,101382.91
2019-05-23T20:15:26.394Z,101384.20
2019-05-23T20:18:32.959Z,101388.48
2019-05-23T20:21:39.588Z,101390.68
2019-05-23T20:24:46.409Z,101379.55
2019-05-23T20:27:52.932Z,101379.15
2019-05-23T20:30:59.715Z,101379.15
2019-05-23T20:34:07.490Z,101388.59
2019-05-23T20:37:14.435Z,101388.14
2019-05-23T20:40:21.116Z,101387.22
2019-05-23T20:43:27.597Z,101392.22
2019-05-23T20:46:34.133Z,101390.84
2019-05-23T20:49:40.586Z,101395.24
2019-05-23T20:52:47.206Z,101396.33
2019-05-23T20:55:53.668Z,101386.08
2019-05-23T20:59:00.204Z,101386.69
2019-05-23T21:02:07.177Z,101389.43
2019-05-23T21:05:13.716Z,101390.34
2019-05-23T21:08:20.195Z,101383.41
2019-05-23T21:11:26.852Z,101394.89
2019-05-23T21:14:33.676Z,101386.50
2019-05-23T21:17:41.468Z,101398.88
2019-05-23T21:20:51.176Z,101387.27
2019-05-23T21:23:57.722Z,101392.34
2019-05-23T21:27:04.562Z,101377.88
2019-05-23T21:30:12.063Z,101387.53
2019-05-23T21:33:18.521Z,101378.73
2019-05-23T21:36:26.644Z,101381.88
2019-05-23T21:39:34.510Z,101382.75
2019-05-23T21:42:47.627Z,101376.60
2019-05-23T21:45:53.497Z,101381.39
2019-05-23T21:49:01.596Z,101385.55
2019-05-23T21:52:09.673Z,101379.84
2019-05-23T21:55:21.400Z,101381.36
2019-05-23T21:58:29.217Z,101372.97
2019-05-23T22:01:42.757Z,101365.61
2019-05-23T22:05:03.204Z,101365.61
2019-05-23T22:08:11.345Z,101369.58
2019-05-23T22:11:19.190Z,101370.22
2019-05-23T22:14:27.142Z,101370.34
2019-05-23T22:17:35.265Z,101363.31
2019-05-23T22:20:43.685Z,101377.73
2019-05-23T22:23:51.727Z,101369.86
2019-05-23T22:27:00.803Z,101366.01
2019-05-23T22:30:09.235Z,101373.88
2019-05-23T22:33:19.018Z,101368.84
2019-05-23T22:36:26.965Z,101358.60
2019-05-23T22:39:35.174Z,101358.60
2019-05-23T22:42:45.866Z,101361.52
2019-05-23T22:45:55.887Z,101362.38
2019-05-23T22:49:04.115Z,101356.91
2019-05-23T22:52:12.469Z,101358.85
2019-05-23T22:55:20.341Z,101353.80
2019-05-23T22:58:28.742Z,101358.11
2019-05-23T23:01:36.853Z,101348.76
2019-05-23T23:04:44.711Z,101351.93
2019-05-23T23:07:52.793Z,101352.36
2019-05-23T23:11:01.650Z,101347.64
2019-05-23T23:14:09.554Z,101340.61
2019-05-23T23:17:19.114Z,101347.41
2019-05-23T23:20:26.993Z,101351.41
2019-05-23T23:23:35.004Z,101351.19
2019-05-23T23:26:43.202Z,101340.23
2019-05-23T23:29:52.400Z,101336.27
2019-05-23T23:33:00.583Z,101336.89
2019-05-23T23:36:08.552Z,101342.59
2019-05-23T23:39:18.059Z,101336.94
2019-05-23T23:42:27.583Z,101338.17
2019-05-23T23:45:55.571Z,101331.03
2019-05-23T23:49:21.206Z,101329.34
2019-05-23T23:52:47.103Z,101328.63
2019-05-23T23:56:13.928Z,101319.72
2019-05-23T23:59:21.212Z,101319.72
